Data for 08/27/2014

Time Sea-Level Adjusted Pressure Absolute Pressure Temperature Relative Humidity Dew Point   
(mb) (inHg) (mb) (inHg) (C) (F) (%) (C) (F)
00:05 1023 30.21 852 25.16 13.6 56.6 63 6.9 44.4
00:10 1023 30.21 852 25.16 13.4 56.1 64 6.7 44.1
00:15 1023 30.21 852 25.16 13.2 55.8 64 6.7 44.1
00:20 1023 30.21 852 25.16 13.3 55.9 63 6.5 43.8
00:25 1023 30.21 852 25.16 13.3 55.9 63 6.5 43.7
00:30 1023 30.21 852 25.16 13.3 56 63 6.6 43.8
00:35 1023 30.21 852 25.16 13.4 56.1 62 6.4 43.4
00:40 1023 30.21 852 25.16 13.6 56.5 60 6.1 43
00:45 1023 30.21 852 25.16 13.6 56.5 61 6.4 43.5
00:50 1023 30.21 852 25.16 13.4 56.1 62 6.4 43.4
00:55 1023 30.21 852 25.16 13.3 56 63 6.4 43.5
01:00 1023 30.21 852 25.16 13.3 56 62 6.4 43.4
01:05 1023 30.21 852 25.16 13.5 56.4 62 6.4 43.6
01:10 1023 30.21 852 25.16 13.4 56.2 63 6.7 44
01:15 1023 30.21 852 25.16 13.2 55.7 65 6.7 44.1
01:20 1023 30.21 852 25.16 12.9 55.1 66 6.8 44.2
01:25 1023 30.21 852 25.16 12.7 54.8 65 6.3 43.3
01:30 1023 30.21 852 25.16 12.7 54.9 66 6.7 44
01:35 1023 30.21 852 25.16 12.2 54 67 6.3 43.4
01:40 1023 30.21 852 25.16 12.1 53.8 68 6.4 43.6
01:45 1023 30.21 852 25.16 12 53.5 68 6.2 43.2
01:50 1023 30.21 852 25.16 12.1 53.9 67 6.2 43.1
01:55 1023 30.21 852 25.16 12.4 54.3 66 6.3 43.4
02:00 1023 30.21 852 25.16 12.2 54 68 6.5 43.7
02:05 1023 30.21 852 25.16 12 53.6 69 6.4 43.6
02:10 1023 30.21 852 25.16 11.9 53.4 69 6.4 43.5
02:15 1023 30.21 852 25.16 12 53.6 69 6.4 43.5
02:20 1023 30.21 852 25.16 11.9 53.4 69 6.4 43.6
02:25 1023 30.21 852 25.16 11.8 53.2 69 6.3 43.3
02:30 1023 30.21 852 25.16 11.8 53.2 70 6.5 43.7
02:35 1023 30.21 852 25.16 11.8 53.2 68 6.2 43.2
02:40 1023 30.21 852 25.16 12 53.7 68 6.3 43.3
02:45 1023 30.21 852 25.16 12 53.5 69 6.6 43.8
02:50 1023 30.21 852 25.16 11.5 52.7 70 6.3 43.4
02:55 1023 30.21 852 25.16 11.3 52.3 70 6.1 43
03:00 1023 30.21 852 25.16 11.3 52.3 71 6.2 43.2
03:05 1023 30.21 852 25.16 11 51.8 72 6.2 43.1
03:10 1023 30.21 852 25.16 10.9 51.6 72 6 42.8
03:15 1023 30.21 852 25.16 11.3 52.3 69 5.8 42.5
03:20 1023 30.21 852 25.16 11.6 52.8 69 6.1 43
03:25 1023 30.21 852 25.16 11.9 53.5 68 6.4 43.5
03:30 1023 30.21 852 25.16 11.4 52.6 71 6.3 43.4
03:35 1023 30.21 852 25.16 11 51.9 72 6.2 43.2
03:40 1023 30.21 852 25.16 10.8 51.4 73 6.1 42.9
03:45 1023 30.21 852 25.16 10.7 51.3 72 6 42.8
03:50 1023 30.21 852 25.16 10.8 51.5 72 6 42.9
03:55 1023 30.21 852 25.16 10.8 51.5 72 6.1 42.9
04:00 1023 30.21 852 25.16 10.7 51.2 73 6.1 43
04:05 1023 30.21 852 25.16 10.8 51.4 73 6 42.9
04:10 1023 30.21 852 25.16 10.6 51.1 73 6.1 42.9
04:15 1023 30.21 852 25.16 10.5 50.9 73 5.9 42.6
04:20 1023 30.21 852 25.16 10.7 51.2 71 5.6 42.2
04:25 1023 30.21 852 25.16 11 51.8 70 5.9 42.5
04:30 1023 30.21 852 25.16 11.1 52 70 6 42.7
04:35 1023 30.21 852 25.16 11.3 52.3 70 6 42.7
04:40 1023 30.21 852 25.16 11.3 52.3 70 6 42.8
04:45 1023 30.21 852 25.16 11.2 52.2 70 5.9 42.6
04:50 1023 30.21 852 25.16 11.1 51.9 71 5.9 42.7
04:55 1023 30.21 852 25.16 11 51.9 70 5.8 42.4
05:00 1023 30.21 852 25.16 11.2 52.1 69 5.7 42.2
05:05 1023 30.21 852 25.16 11.3 52.4 68 5.8 42.4
05:10 1023 30.21 852 25.16 11.3 52.3 69 5.8 42.5
05:15 1023 30.21 852 25.16 11.1 52 69 5.7 42.3
05:20 1023 30.21 852 25.16 11 51.9 70 5.8 42.5
05:25 1023 30.21 852 25.16 11 51.8 69 5.5 41.9
05:30 1023 30.21 852 25.16 11.2 52.1 68 5.5 42
05:35 1023 30.21 852 25.16 11.3 52.3 69 5.8 42.4
05:40 1023 30.21 852 25.16 10.8 51.5 71 5.7 42.3
05:45 1023 30.21 853 25.19 10.5 50.9 70 5.4 41.7
05:50 1023 30.21 853 25.19 10.5 50.8 71 5.5 41.9
05:55 1023 30.21 853 25.19 10.2 50.4 72 5.5 41.9
06:00 1023 30.21 853 25.19 10.2 50.4 72 5.4 41.6
06:05 1024 30.24 853 25.19 10.6 51.1 68 5.1 41.1
06:10 1024 30.24 853 25.19 11.3 52.3 67 5.4 41.8
06:15 1024 30.24 853 25.19 11.1 52 68 5.5 41.9
06:20 1024 30.24 853 25.19 11.2 52.1 68 5.6 42
06:25 1024 30.24 853 25.19 11.3 52.4 67 5.6 42
06:30 1024 30.24 853 25.19 11.4 52.5 68 5.7 42.2
06:35 1024 30.24 853 25.19 11.4 52.4 67 5.6 42
06:40 1024 30.24 853 25.19 11.7 53 66 5.6 42.1
06:45 1024 30.24 853 25.19 12 53.6 65 5.7 42.3
06:50 1024 30.24 853 25.19 12.5 54.5 64 5.9 42.7
06:55 1024 30.24 853 25.19 12.7 54.8 63 5.9 42.5
07:00 1024 30.24 853 25.19 12.7 54.9 63 6 42.9
07:05 1024 30.24 853 25.19 12.8 55 65 6.5 43.7
07:10 1024 30.24 853 25.19 12.6 54.6 66 6.4 43.5
07:15 1024 30.24 853 25.19 12.6 54.7 66 6.5 43.6
07:20 1024 30.24 853 25.19 12.9 55.2 64 6.4 43.5
07:25 1024 30.24 853 25.19 13 55.3 63 6.2 43.2
07:30 1024 30.24 853 25.19 13.1 55.7 62 6.1 43
07:35 1024 30.24 853 25.19 13.3 56 62 6.3 43.4
07:40 1024 30.24 853 25.19 14 57.1 60 6.4 43.5
07:45 1024 30.24 853 25.19 14.5 58 59 6.7 44
07:50 1024 30.24 853 25.19 14.7 58.5 57 6.5 43.6
07:55 1024 30.24 853 25.19 15.6 60.1 54 6.4 43.6
08:00 1024 30.24 853 25.19 16.3 61.4 50 6 42.8
08:05 1024 30.24 853 25.19 17 62.5 49 6.4 43.5
08:10 1024 30.24 853 25.19 17.1 62.9 51 7.1 44.7
08:15 1023 30.21 853 25.19 17.4 63.2 51 7.3 45.2
08:20 1023 30.21 853 25.19 17.3 63.1 51 7.2 45
08:25 1023 30.21 853 25.19 17.6 63.6 49 6.8 44.3
08:30 1023 30.21 853 25.19 17.7 63.9 50 7.2 45
08:35 1023 30.21 853 25.19 17.6 63.7 50 7.1 44.8
08:40 1023 30.21 853 25.19 17.7 63.8 49 6.9 44.5
08:45 1023 30.21 853 25.19 18 64.4 48 7 44.6
08:50 1023 30.21 853 25.19 17.9 64.2 48 6.8 44.3
08:55 1023 30.21 853 25.19 17.8 64.1 48 6.7 44
09:00 1023 30.21 853 25.19 17.9 64.3 46 6.3 43.4
09:05 1023 30.21 852 25.16 18.8 65.8 44 6.3 43.3
09:10 1023 30.21 852 25.16 19.5 67.2 42 6.4 43.5
09:15 1023 30.21 852 25.16 19.9 67.9 42 6.8 44.2
09:20 1023 30.21 852 25.16 20 67.9 42 6.8 44.2
09:25 1023 30.21 852 25.16 20.6 69.1 38 6 42.9
09:30 1023 30.21 852 25.16 21.1 70 39 6.8 44.3
09:35 1023 30.21 852 25.16 21.1 69.9 38 6.6 43.8
09:40 1023 30.21 852 25.16 20.5 68.9 41 6.9 44.4
09:45 1023 30.21 852 25.16 20.3 68.5 39 6.2 43.1
09:50 1023 30.21 852 25.16 20.7 69.3 37 5.9 42.6
09:55 1023 30.21 852 25.16 20 68 41 6.5 43.6
10:00 1023 30.21 852 25.16 20.2 68.4 40 6.5 43.8
10:05 1023 30.21 852 25.16 20.7 69.2 38 6.1 42.9
10:10 1023 30.21 852 25.16 20.2 68.3 39 6.1 42.9
10:15 1023 30.21 852 25.16 20.9 69.7 38 6.4 43.5
10:20 1023 30.21 852 25.16 21.8 71.2 36 6.2 43.2
10:25 1023 30.21 852 25.16 21.4 70.5 38 6.8 44.2
10:30 1023 30.21 852 25.16 22 71.6 35 6 42.7
10:35 1023 30.21 852 25.16 22.5 72.6 33 5.6 42.1
10:40 1023 30.21 852 25.16 22.6 72.7 36 6.9 44.4
10:45 1023 30.21 852 25.16 21.8 71.3 36 6.2 43.2
10:50 1023 30.21 852 25.16 22.4 72.4 34 5.9 42.7
10:55 1023 30.21 852 25.16 22.9 73.2 33 5.8 42.4
11:00 1023 30.21 852 25.16 23.2 73.7 33 6.1 43
11:05 1023 30.21 852 25.16 23.4 74.2 32 6.2 43.1
11:10 1023 30.21 852 25.16 23.7 74.7 31 5.8 42.5
11:15 1023 30.21 852 25.16 23.1 73.6 33 6.3 43.4
11:20 1023 30.21 852 25.16 23.1 73.6 30 5 41
11:25 1023 30.21 852 25.16 23.5 74.2 32 6 42.7
11:30 1022 30.18 852 25.16 23.4 74.2 30 4.9 40.8
11:35 1022 30.18 852 25.16 24.3 75.8 29 5.4 41.8
11:40 1022 30.18 852 25.16 24.1 75.4 29 5.4 41.8
11:45 1022 30.18 852 25.16 24.4 76 29 5.4 41.7
11:50 1022 30.18 852 25.16 24.6 76.4 28 4.9 40.9
11:55 1022 30.18 852 25.16 24.9 76.8 27 4.7 40.4
12:00 1022 30.18 851 25.13 24.7 76.4 28 5.4 41.7
12:05 1022 30.18 851 25.13 24.7 76.4 28 5.1 41.2
12:10 1022 30.18 851 25.13 24.3 75.7 29 5.2 41.4
12:15 1022 30.18 851 25.13 23.7 74.6 28 4.5 40.2
12:20 1022 30.18 851 25.13 24.5 76.1 27 4.7 40.4
12:25 1022 30.18 851 25.13 24.8 76.7 25 3.7 38.6
12:30 1022 30.18 851 25.13 25.2 77.4 27 5 41
12:35 1022 30.18 851 25.13 25.3 77.5 28 5.6 42.1
12:40 1022 30.18 851 25.13 24.8 76.7 27 4.9 40.8
12:45 1022 30.18 851 25.13 25.1 77.1 26 4.6 40.3
12:50 1022 30.18 851 25.13 25.2 77.3 27 4.9 40.8
12:55 1022 30.18 851 25.13 25.2 77.3 27 5 40.9
13:00 1022 30.18 851 25.13 25.3 77.6 26 4.7 40.4
13:05 1022 30.18 851 25.13 25.3 77.5 25 3.8 38.9
13:10 1022 30.18 851 25.13 24.8 76.7 27 4.6 40.3
13:15 1022 30.18 851 25.13 25.2 77.4 26 4.7 40.4
13:20 1022 30.18 851 25.13 25 77.1 26 4.2 39.6
13:25 1022 30.18 851 25.13 25.4 77.8 27 5.1 41.1
13:30 1022 30.18 851 25.13 25.3 77.5 26 4.4 39.9
13:35 1022 30.18 851 25.13 25.5 77.8 26 5 41
13:40 1022 30.18 851 25.13 25.6 78.2 25 4.5 40.1
13:45 1022 30.18 851 25.13 25.6 78.1 25 4.3 39.7
13:50 1022 30.18 851 25.13 25.8 78.4 25 4.6 40.2
13:55 1022 30.18 851 25.13 26 78.8 24 4.3 39.7
14:00 1022 30.18 851 25.13 26.1 78.9 23 3.8 38.9
14:05 1022 30.18 851 25.13 25.6 78.1 24 4 39.3
14:10 1022 30.18 851 25.13 25.7 78.3 25 4.5 40.1
14:15 1022 30.18 851 25.13 25.6 78 25 4.5 40.1
14:20 1021 30.15 851 25.13 25.5 77.8 25 4.4 39.9
14:25 1021 30.15 851 25.13 25.2 77.4 25 3.9 39.1
14:30 1021 30.15 851 25.13 25.5 77.8 25 4.5 40.1
14:35 1021 30.15 851 25.13 25.8 78.4 24 4.1 39.4
14:40 1021 30.15 851 25.13 25.6 78 24 3.9 39
14:45 1021 30.15 851 25.13 25.6 78.2 25 4.2 39.5
14:50 1021 30.15 851 25.13 24.4 75.9 25 3.5 38.3
14:55 1021 30.15 851 25.13 24.9 76.8 25 3.9 39.1
15:00 1021 30.15 851 25.13 25.6 78.1 24 3.8 38.8
15:05 1021 30.15 851 25.13 25.8 78.5 23 3.3 38
15:10 1021 30.15 850 25.1 25.4 77.8 23 3 37.5
15:15 1021 30.15 850 25.1 26.1 78.9 22 2.9 37.2
15:20 1021 30.15 850 25.1 26.2 79.1 22 2.9 37.2
15:25 1021 30.15 850 25.1 26.5 79.7 22 3.3 38
15:30 1021 30.15 850 25.1 26.5 79.7 21 2.7 36.8
15:35 1021 30.15 850 25.1 26.6 79.9 21 2.8 37
15:40 1021 30.15 850 25.1 26.7 80.1 20 2.3 36.2
15:45 1021 30.15 850 25.1 26.4 79.6 21 2.9 37.2
15:50 1021 30.15 850 25.1 26.6 79.9 21 2.6 36.6
15:55 1021 30.15 850 25.1 26.7 80 21 3.1 37.5
16:00 1021 30.15 850 25.1 26.7 80.1 21 2.8 37
16:05 1021 30.15 850 25.1 26.7 80 22 3.3 38
16:10 1021 30.15 850 25.1 26.5 79.7 21 2.4 36.3
16:15 1021 30.15 850 25.1 26.7 80.1 20 2.2 35.9
16:20 1021 30.15 850 25.1 26.4 79.4 20 2.1 35.8
16:25 1021 30.15 850 25.1 26.5 79.7 20 1.8 35.3
16:30 1021 30.15 850 25.1 26.7 80 20 1.9 35.4
16:35 1021 30.15 850 25.1 26.4 79.5 21 2.3 36.2
16:40 1021 30.15 850 25.1 26.3 79.3 20 1.6 34.9
16:45 1021 30.15 850 25.1 26.3 79.3 21 2.3 36.1
16:50 1021 30.15 850 25.1 26.4 79.5 21 2.5 36.5
16:55 1021 30.15 850 25.1 25.7 78.2 21 2.3 36.1
17:00 1021 30.15 850 25.1 25.4 77.6 21 1.8 35.3
17:05 1021 30.15 850 25.1 25.5 78 20 1.3 34.4
17:10 1021 30.15 850 25.1 26 78.7 20 1.6 35
17:15 1021 30.15 850 25.1 25.6 78.2 21 1.9 35.5
17:20 1021 30.15 850 25.1 25.9 78.6 22 3.1 37.5
17:25 1021 30.15 850 25.1 25.6 78 21 1.9 35.4
17:30 1021 30.15 850 25.1 25.5 78 22 2.3 36.1
17:35 1021 30.15 850 25.1 25.3 77.5 22 2.2 35.9
17:40 1021 30.15 850 25.1 25.2 77.3 22 2.5 36.5
17:45 1021 30.15 850 25.1 25.1 77.1 22 2.2 36
17:50 1021 30.15 850 25.1 24.9 76.8 23 2.4 36.3
17:55 1021 30.15 850 25.1 24.8 76.6 23 2.5 36.5
18:00 1021 30.15 850 25.1 24.7 76.4 24 2.8 37
18:05 1021 30.15 850 25.1 24.5 76 25 3.1 37.6
18:10 1021 30.15 850 25.1 24.3 75.7 24 2.8 37.1
18:15 1021 30.15 850 25.1 24.2 75.6 24 2.6 36.6
18:20 1021 30.15 850 25.1 24.1 75.4 25 2.9 37.2
18:25 1021 30.15 850 25.1 24 75.3 25 2.9 37.1
18:30 1021 30.15 850 25.1 23.9 75 25 2.6 36.7
18:35 1021 30.15 850 25.1 23.8 74.9 25 2.6 36.7
18:40 1021 30.15 850 25.1 23.8 74.8 25 2.5 36.5
18:45 1021 30.15 850 25.1 23.7 74.6 25 2.6 36.7
18:50 1021 30.15 850 25.1 23.6 74.4 26 3.1 37.6
18:55 1021 30.15 850 25.1 23.3 74 26 3.1 37.5
19:00 1021 30.15 850 25.1 23 73.5 33 6.3 43.3
19:05 1021 30.15 850 25.1 22 71.6 39 7.5 45.5
19:10 1021 30.15 850 25.1 21.2 70.1 41 7.4 45.3
19:15 1021 30.15 850 25.1 20.6 69 42 7.3 45.1
19:20 1021 30.15 850 25.1 20.1 68.1 44 7.6 45.7
19:25 1021 30.15 850 25.1 19.6 67.3 46 7.8 46
19:30 1021 30.15 850 25.1 19.3 66.7 46 7.5 45.5
19:35 1021 30.15 850 25.1 18.8 65.9 46 7 44.6
19:40 1021 30.15 850 25.1 18.6 65.5 46 6.8 44.2
19:45 1021 30.15 850 25.1 18.4 65.2 46 6.6 43.9
19:50 1021 30.15 851 25.13 18.1 64.7 49 7.5 45.4
19:55 1021 30.15 851 25.13 17.9 64.1 48 6.9 44.5
20:00 1021 30.15 851 25.13 17.5 63.4 49 6.9 44.4
20:05 1021 30.15 851 25.13 17.1 62.8 51 6.9 44.4
20:10 1022 30.18 851 25.13 16.9 62.4 48 6 42.8
20:15 1022 30.18 851 25.13 17.2 63 47 6 42.9
20:20 1022 30.18 851 25.13 17.1 62.9 46 5.7 42.2
20:25 1022 30.18 851 25.13 17.1 62.8 47 5.7 42.3
20:30 1022 30.18 851 25.13 17 62.6 46 5.3 41.6
20:35 1022 30.18 851 25.13 17.1 62.8 45 5.1 41.2
20:40 1022 30.18 851 25.13 17.1 62.8 47 5.8 42.4
20:45 1022 30.18 851 25.13 16.8 62.2 47 5.6 42
20:50 1022 30.18 851 25.13 16.7 62 48 5.6 42.2
20:55 1022 30.18 851 25.13 16.5 61.7 49 5.8 42.4
21:00 1022 30.18 851 25.13 16.5 61.6 47 5.3 41.5
21:05 1022 30.18 851 25.13 16.4 61.6 48 5.5 41.8
21:10 1022 30.18 851 25.13 16.3 61.4 47 5.1 41.3
21:15 1022 30.18 851 25.13 16.3 61.3 47 5.1 41.1
21:20 1022 30.18 851 25.13 16.2 61.2 48 5.2 41.3
21:25 1022 30.18 851 25.13 16.1 60.9 48 5.2 41.3
21:30 1022 30.18 851 25.13 16 60.8 49 5.4 41.6
21:35 1022 30.18 851 25.13 16 60.8 48 5.2 41.4
21:40 1022 30.18 851 25.13 15.9 60.6 49 5.2 41.3
21:45 1022 30.18 851 25.13 15.9 60.6 48 4.9 40.8
21:50 1022 30.18 851 25.13 16 60.7 48 5 40.9
21:55 1021 30.15 851 25.13 16.1 61 46 4.7 40.4
22:00 1021 30.15 851 25.13 16.3 61.3 46 4.6 40.4
22:05 1021 30.15 851 25.13 16.2 61.2 46 4.8 40.7
22:10 1021 30.15 851 25.13 16.2 61.1 46 4.6 40.3
22:15 1021 30.15 851 25.13 16.2 61.2 45 4.5 40.1
22:20 1021 30.15 851 25.13 16.1 61.1 46 4.7 40.4
22:25 1021 30.15 851 25.13 16 60.7 47 4.7 40.5
22:30 1021 30.15 851 25.13 15.8 60.5 47 4.6 40.3
22:35 1021 30.15 851 25.13 15.8 60.5 47 4.5 40.2
22:40 1021 30.15 851 25.13 15.8 60.4 48 4.8 40.6
22:45 1022 30.18 851 25.13 15.7 60.3 47 4.4 39.9
22:50 1021 30.15 851 25.13 15.9 60.6 46 4.5 40.1
22:55 1021 30.15 851 25.13 15.9 60.6 47 4.5 40.2
23:00 1021 30.15 851 25.13 15.7 60.3 47 4.6 40.2
23:05 1022 30.18 851 25.13 15.5 60 48 4.6 40.3
23:10 1021 30.15 851 25.13 15.5 59.9 48 4.5 40.1
23:15 1021 30.15 851 25.13 15.4 59.7 48 4.6 40.2
23:20 1021 30.15 851 25.13 15.3 59.5 48 4.4 40
23:25 1021 30.15 851 25.13 15.5 59.9 47 4.3 39.8
23:30 1021 30.15 851 25.13 15.6 60 47 4.4 39.9
23:35 1022 30.18 851 25.13 15.5 59.9 48 4.7 40.5
23:40 1022 30.18 851 25.13 15.2 59.3 48 4.5 40.1
23:45 1022 30.18 851 25.13 15.1 59.2 49 4.7 40.4
23:50 1022 30.18 851 25.13 15 59 49 4.5 40.1
23:55 1022 30.18 851 25.13 14.7 58.5 53 5.2 41.4
24:00 1022 30.18 851 25.13 14.4 57.9 53 5 41